Time;durP1;ratioP1;P1;durP2;ratioP2;P2;SDS_P1;SDS_P2;PMS_P1;PMS_P2;Temp;Humidity;BMP_temperature;BMP_pressure;BME280_temperature;BME280_humidity;BME280_pressure;Samples;Min_cycle;Max_cycle;Signal;HPM_P1;HPM_P2
2022/04/09 00:00:15;;;;;;;6.00;2.60;;;;;;;14.96;42.77;94121.03;5008958;28;20030;-75
2022/04/09 00:02:40;;;;;;;17.80;2.17;;;;;;;15.01;42.57;94115.00;4992419;28;20033;-76
2022/04/09 00:05:07;;;;;;;6.18;2.13;;;;;;;15.05;42.26;94113.38;4992327;28;20030;-76
2022/04/09 00:07:32;;;;;;;3.20;2.35;;;;;;;15.13;42.51;94106.75;5008679;28;20439;-76
2022/04/09 00:09:58;;;;;;;2.50;2.22;;;;;;;15.10;42.09;94099.44;5008656;28;20049;-75
2022/04/09 00:12:23;;;;;;;6.80;2.15;;;;;;;15.08;42.27;94112.03;4992413;28;20481;-76
2022/04/09 00:14:49;;;;;;;21.48;2.45;;;;;;;15.04;42.27;94103.19;4992154;28;20088;-76
2022/04/09 00:17:14;;;;;;;7.30;1.88;;;;;;;15.05;42.42;94107.34;4992252;28;20033;-75
2022/04/09 00:19:39;;;;;;;6.05;2.05;;;;;;;15.08;42.02;94109.41;5008379;28;20049;-75
2022/04/09 00:22:05;;;;;;;2.92;2.30;;;;;;;15.09;42.09;94114.38;5009747;28;20045;-76
2022/04/09 00:24:30;;;;;;;2.65;2.08;;;;;;;15.10;42.22;94110.69;4993200;28;20413;-75
2022/04/09 00:26:56;;;;;;;9.82;2.25;;;;;;;15.11;41.59;94114.09;5009802;28;20029;-76
2022/04/09 00:29:21;;;;;;;2.72;1.90;;;;;;;15.11;42.40;94104.41;5009580;28;20397;-75
2022/04/09 00:31:47;;;;;;;5.05;1.75;;;;;;;15.14;42.19;94093.41;5008657;28;20397;-76
2022/04/09 00:34:12;;;;;;;3.15;2.05;;;;;;;15.11;42.12;94093.94;5009240;28;20038;-75
2022/04/09 00:36:38;;;;;;;13.88;2.60;;;;;;;15.09;41.93;94100.50;5009474;28;20497;-76
2022/04/09 00:39:04;;;;;;;2.40;2.03;;;;;;;15.09;42.33;94100.50;5008106;28;20404;-75
2022/04/09 00:41:29;;;;;;;2.78;1.65;;;;;;;15.09;42.19;94100.50;4992081;28;20053;-76
2022/04/09 00:43:55;;;;;;;3.10;1.83;;;;;;;15.12;42.06;94095.50;5009149;28;20029;-76
2022/04/09 00:46:20;;;;;;;6.72;1.98;;;;;;;15.13;41.89;94091.03;4991742;28;20588;-75
2022/04/09 00:48:45;;;;;;;9.32;2.10;;;;;;;15.15;41.94;94091.56;4991684;28;20550;-76
2022/04/09 00:51:11;;;;;;;3.03;2.13;;;;;;;15.12;42.49;94089.47;4991865;28;20045;-76
2022/04/09 00:53:39;;;;;;;2.35;1.92;;;;;;;15.12;42.24;94084.25;5011569;28;20041;-75
2022/04/09 00:56:13;;;;;;;3.00;1.70;;;;;;;15.16;42.02;94087.88;5011706;28;20055;-75
2022/04/09 00:58:40;;;;;;;6.93;2.05;;;;;;;15.16;42.24;94093.13;5011797;28;20033;-75
2022/04/09 01:01:06;;;;;;;3.30;2.17;;;;;;;15.20;42.24;94086.25;4995480;28;20121;-75
2022/04/09 01:03:33;;;;;;;4.60;1.85;;;;;;;15.20;42.30;94086.25;5011209;28;20033;-75
2022/04/09 01:05:59;;;;;;;6.05;1.90;;;;;;;15.24;42.09;94093.28;5002972;28;20049;-75
2022/04/09 01:08:24;;;;;;;2.55;2.17;;;;;;;15.31;42.02;94087.72;4995057;28;20030;-75
2022/04/09 01:10:50;;;;;;;7.80;2.20;;;;;;;15.34;41.90;94081.16;5012696;28;20038;-75
2022/04/09 01:13:16;;;;;;;3.38;2.20;;;;;;;15.40;41.60;94080.81;5012229;28;20430;-75
2022/04/09 01:15:42;;;;;;;4.60;2.22;;;;;;;15.42;42.26;94083.91;4994992;28;20064;-75
2022/04/09 01:18:08;;;;;;;7.90;2.63;;;;;;;15.43;41.85;94068.97;4994935;28;20034;-75
2022/04/09 01:20:33;;;;;;;2.72;2.30;;;;;;;15.41;42.02;94063.25;4994820;28;20029;-74
2022/04/09 01:22:58;;;;;;;4.60;2.50;;;;;;;15.38;41.99;94067.19;5012361;28;20053;-75
2022/04/09 01:25:24;;;;;;;6.63;2.50;;;;;;;15.38;42.65;94072.44;5012417;28;20029;-75
2022/04/09 01:27:49;;;;;;;4.88;2.40;;;;;;;15.33;42.85;94069.88;4978700;28;20517;-75
2022/04/09 01:30:16;;;;;;;6.13;2.40;;;;;;;15.17;42.70;94071.09;5012242;28;20397;-75
2022/04/09 01:32:41;;;;;;;8.13;2.72;;;;;;;14.98;42.99;94058.72;5011132;28;20038;-75
2022/04/09 01:35:06;;;;;;;13.95;2.95;;;;;;;14.78;43.55;94068.59;5010719;28;20052;-75
2022/04/09 01:37:32;;;;;;;18.45;2.95;;;;;;;14.59;43.67;94065.88;5009908;28;20027;-75
2022/04/09 01:39:57;;;;;;;5.15;2.72;;;;;;;14.41;44.46;94064.69;5010855;28;20067;-75
2022/04/09 01:42:26;;;;;;;5.80;2.55;;;;;;;14.22;44.59;94071.63;5011142;28;20034;-75
2022/04/09 01:44:54;;;;;;;7.85;3.05;;;;;;;14.04;45.32;94065.22;4995220;28;20099;-75
2022/04/09 01:47:20;;;;;;;6.07;3.00;;;;;;;13.85;45.60;94062.44;5010841;28;20476;-75
2022/04/09 01:49:45;;;;;;;6.18;3.38;;;;;;;13.73;45.79;94070.59;5011835;28;20041;-75
2022/04/09 01:52:10;;;;;;;6.53;2.88;;;;;;;13.64;46.30;94085.25;5010805;28;20119;-75
2022/04/09 01:54:36;;;;;;;6.13;2.92;;;;;;;13.45;47.17;94084.28;5010485;28;20033;-76
2022/04/09 01:57:01;;;;;;;4.97;2.30;;;;;;;13.36;47.09;94080.69;5010910;28;20041;-76
2022/04/09 01:59:27;;;;;;;5.07;1.90;;;;;;;13.24;47.40;94083.59;5010622;28;20021;-75
2022/04/09 02:01:52;;;;;;;9.10;2.55;;;;;;;13.20;47.47;94093.78;4994276;28;20036;-75
2022/04/09 02:04:18;;;;;;;3.72;2.72;;;;;;;13.13;47.71;94077.56;5009643;28;20045;-75
2022/04/09 02:06:44;;;;;;;7.40;2.38;;;;;;;13.05;47.69;94080.75;5010713;28;20034;-75
2022/04/09 02:09:12;;;;;;;7.65;2.40;;;;;;;13.02;47.91;94080.50;5011701;28;20033;-75
2022/04/09 02:11:41;;;;;;;7.13;2.97;;;;;;;13.01;48.11;94079.69;5009860;28;20060;-75
2022/04/09 02:14:10;;;;;;;5.45;2.47;;;;;;;12.96;48.22;94081.53;5011106;28;20033;-75
2022/04/09 02:16:39;;;;;;;3.47;2.53;;;;;;;12.98;48.20;94095.09;5009121;28;20125;-75
2022/04/09 02:19:04;;;;;;;3.28;2.40;;;;;;;13.00;48.21;94083.34;5010232;28;20628;-75
2022/04/09 02:21:30;;;;;;;4.32;2.92;;;;;;;13.00;48.11;94087.78;5011648;28;20029;-76
2022/04/09 02:23:55;;;;;;;8.50;2.58;;;;;;;13.06;48.23;94087.53;5009932;28;20042;-75
2022/04/09 02:26:21;;;;;;;5.03;2.17;;;;;;;13.07;47.89;94078.63;5010076;28;20034;-75
2022/04/09 02:28:48;;;;;;;4.47;2.30;;;;;;;13.09;47.90;94081.75;5010038;28;20073;-75
2022/04/09 02:31:17;;;;;;;5.05;2.35;;;;;;;13.09;48.06;94081.75;5011291;28;20018;-75
2022/04/09 02:33:42;;;;;;;5.57;2.33;;;;;;;13.14;48.10;94089.56;5011017;28;20042;-75
2022/04/09 02:36:12;;;;;;;5.70;2.22;;;;;;;13.10;47.67;94072.09;5011093;28;20026;-75
2022/04/09 02:38:37;;;;;;;7.38;2.00;;;;;;;13.14;47.84;94067.91;5010525;28;20117;-75
2022/04/09 02:41:03;;;;;;;3.03;1.92;;;;;;;13.19;47.73;94065.34;5009935;28;20125;-76
2022/04/09 02:43:28;;;;;;;11.90;2.83;;;;;;;13.24;47.73;94072.38;5009827;28;20168;-76
2022/04/09 02:45:55;;;;;;;2.60;2.00;;;;;;;13.31;47.11;94057.19;5009794;28;20029;-75
2022/04/09 02:48:21;;;;;;;8.40;2.72;;;;;;;13.36;47.16;94054.56;5010027;28;20042;-76
2022/04/09 02:50:48;;;;;;;10.55;2.88;;;;;;;13.37;47.20;94053.53;5009928;28;20034;-75
2022/04/09 02:53:13;;;;;;;4.78;2.38;;;;;;;13.38;47.18;94057.69;5009653;28;20505;-75
2022/04/09 02:55:47;;;;;;;5.43;2.40;;;;;;;13.38;46.88;94057.69;5009677;28;20045;-75
2022/04/09 02:58:12;;;;;;;4.25;2.58;;;;;;;13.40;47.22;94055.59;5016790;28;20053;-75
2022/04/09 03:00:38;;;;;;;11.60;2.50;;;;;;;13.34;47.40;94051.44;5011235;28;20057;-80
2022/04/09 03:03:04;;;;;;;4.22;3.00;;;;;;;13.26;47.63;94052.00;4993372;28;20041;-76
2022/04/09 03:05:29;;;;;;;5.00;2.38;;;;;;;13.19;47.76;94050.47;5010750;28;20073;-76
2022/04/09 03:07:54;;;;;;;16.13;2.65;;;;;;;13.18;48.23;94054.13;5009541;28;20509;-76
2022/04/09 03:10:20;;;;;;;5.82;2.50;;;;;;;13.21;47.93;94055.41;4993436;28;20412;-76
2022/04/09 03:12:46;;;;;;;5.70;3.05;;;;;;;13.23;47.86;94061.13;5009551;28;20029;-76
2022/04/09 03:15:12;;;;;;;14.38;2.85;;;;;;;13.26;47.97;94054.59;4992513;28;20044;-76
2022/04/09 03:17:37;;;;;;;5.88;2.97;;;;;;;13.30;48.05;94058.25;4993187;28;20042;-76
2022/04/09 03:20:04;;;;;;;8.30;2.65;;;;;;;13.23;47.75;94055.91;5010674;28;20034;-76
2022/04/09 03:22:30;;;;;;;6.55;2.40;;;;;;;13.12;47.95;94042.06;4993517;28;20059;-76
2022/04/09 03:25:02;;;;;;;7.53;2.80;;;;;;;13.02;48.38;94043.94;5009211;28;20505;-74
2022/04/09 03:27:28;;;;;;;;;;;;;;;12.97;48.63;94039.50;4993570;28;20030;-76
2022/04/09 03:29:53;;;;;;;4.18;2.50;;;;;;;12.91;48.67;94037.97;5009185;28;20448;-76
2022/04/09 03:32:19;;;;;;;6.03;2.42;;;;;;;12.85;48.71;94044.22;5009276;28;20132;-76
2022/04/09 03:34:44;;;;;;;4.80;2.65;;;;;;;12.86;48.98;94040.59;5008829;28;20041;-76
2022/04/09 03:37:10;;;;;;;9.40;2.70;;;;;;;12.79;49.53;94046.06;4992815;28;20033;-75
2022/04/09 03:39:36;;;;;;;6.60;2.67;;;;;;;12.73;49.76;94046.34;5009044;28;20485;-76
2022/04/09 03:42:01;;;;;;;7.43;3.08;;;;;;;12.62;50.16;94041.13;5009207;28;20040;-77
2022/04/09 03:44:26;;;;;;;10.75;5.50;;;;;;;12.54;50.33;94044.28;5009979;28;20639;-76
2022/04/09 03:46:59;;;;;;;27.95;16.77;;;;;;;12.42;50.95;94046.38;5010222;28;20452;-75
2022/04/09 03:49:24;;;;;;;8.70;3.70;;;;;;;12.41;50.88;94049.25;5008906;28;20041;-75
2022/04/09 03:51:49;;;;;;;10.45;3.42;;;;;;;12.37;50.90;94059.41;5010207;28;20049;-75
2022/04/09 03:54:15;;;;;;;8.82;3.53;;;;;;;12.31;51.26;94063.06;4992550;28;20034;-76
2022/04/09 03:56:42;;;;;;;7.80;3.28;;;;;;;12.34;51.24;94054.72;5023750;28;20516;-76
2022/04/09 03:59:07;;;;;;;6.97;3.58;;;;;;;12.41;50.79;94050.03;5009912;28;20026;-74
2022/04/09 04:01:33;;;;;;;4.30;3.15;;;;;;;12.45;50.88;94056.28;5009998;28;20041;-76
2022/04/09 04:03:58;;;;;;;6.80;2.95;;;;;;;12.56;50.64;94051.84;4992239;28;20449;-76
2022/04/09 04:06:24;;;;;;;10.70;3.47;;;;;;;12.61;50.28;94049.22;4992211;28;20034;-76
2022/04/09 04:08:49;;;;;;;4.95;3.08;;;;;;;12.50;50.40;94048.44;5008386;28;20049;-76
2022/04/09 04:11:15;;;;;;;10.25;4.30;;;;;;;12.39;51.19;94046.91;5010099;28;20034;-76
2022/04/09 04:13:40;;;;;;;11.23;4.13;;;;;;;12.43;50.91;94047.94;4992239;28;20041;-75
2022/04/09 04:16:05;;;;;;;7.97;3.47;;;;;;;12.50;50.61;94048.44;5008342;28;20030;-76
2022/04/09 04:18:31;;;;;;;9.35;3.40;;;;;;;12.61;50.51;94055.22;4991580;28;20125;-75
2022/04/09 04:20:56;;;;;;;8.77;3.88;;;;;;;12.69;50.27;94056.53;5009149;28;20038;-76
2022/04/09 04:23:23;;;;;;;11.50;4.75;;;;;;;12.71;50.11;94053.66;5009850;28;20022;-76
2022/04/09 04:25:49;;;;;;;14.68;4.68;;;;;;;12.88;49.81;94059.38;5008355;28;20466;-76
2022/04/09 04:28:15;;;;;;;13.48;4.35;;;;;;;13.05;49.49;94066.91;5008320;28;20025;-76
2022/04/09 04:30:41;;;;;;;16.10;4.78;;;;;;;13.50;48.58;94047.69;4992049;28;20084;-76
2022/04/09 04:33:06;;;;;;;13.13;3.95;;;;;;;14.65;45.95;94049.09;5009224;28;20493;-76
2022/04/09 04:35:31;;;;;;;9.57;4.00;;;;;;;16.06;42.42;94048.53;5009505;28;20030;-76
2022/04/09 04:37:57;;;;;;;13.07;3.80;;;;;;;17.53;39.17;94044.50;5008017;28;20057;-76
2022/04/09 04:40:23;;;;;;;21.73;4.05;;;;;;;18.93;36.67;94043.50;4991738;28;20049;-76
2022/04/09 04:42:49;;;;;;;23.17;4.13;;;;;;;20.23;34.58;94035.97;4992030;28;20044;-77
2022/04/09 04:45:15;;;;;;;21.55;4.07;;;;;;;21.44;31.99;94036.50;5008583;28;20048;-76
2022/04/09 04:47:47;;;;;;;19.05;3.67;;;;;;;22.79;29.60;94037.31;5009126;28;20025;-76
2022/04/09 04:50:13;;;;;;;10.85;3.60;;;;;;;24.12;27.84;94041.19;5007840;28;20037;-77
2022/04/09 04:52:38;;;;;;;16.88;4.40;;;;;;;25.31;25.98;94022.75;5007749;28;20041;-76
2022/04/09 04:55:04;;;;;;;13.95;3.55;;;;;;;26.37;24.46;94028.97;5007679;28;20038;-76
2022/04/09 04:57:39;;;;;;;13.18;3.10;;;;;;;27.45;23.13;94023.31;4991500;28;20049;-76
2022/04/09 05:00:08;;;;;;;20.83;3.50;;;;;;;28.46;21.46;94022.88;5007960;28;20034;-77
2022/04/09 05:02:34;;;;;;;12.85;3.08;;;;;;;29.39;20.57;94014.66;5007821;28;20041;-76
2022/04/09 05:05:01;;;;;;;14.77;3.85;;;;;;;30.55;19.48;94017.72;4991690;28;20037;-77
2022/04/09 05:07:35;;;;;;;;;;;;;;;31.55;18.48;94014.13;4992387;28;20049;-75
2022/04/09 05:10:07;;;;;;;28.20;5.93;;;;;;;32.44;17.65;94010.56;5023424;28;19921;-77
2022/04/09 05:12:33;;;;;;;;;;;;;;;33.32;17.09;94006.63;4992160;28;20030;-75
2022/04/09 05:14:58;;;;;;;20.52;3.63;;;;;;;33.67;16.49;94004.84;5007968;28;20383;-75
2022/04/09 05:17:24;;;;;;;8.50;2.90;;;;;;;33.43;16.02;94001.97;5007362;28;20038;-75
2022/04/09 05:19:50;;;;;;;7.65;2.95;;;;;;;33.08;16.36;94002.19;4991422;28;20030;-77
2022/04/09 05:22:15;;;;;;;11.60;3.53;;;;;;;32.83;16.45;94003.09;5007773;28;20400;-77
2022/04/09 05:24:40;;;;;;;11.10;3.63;;;;;;;33.59;15.78;94009.53;5006614;28;20411;-77
2022/04/09 05:27:06;;;;;;;11.50;3.53;;;;;;;34.69;14.75;94004.22;4989909;28;20400;-77
2022/04/09 05:29:31;;;;;;;13.57;5.20;;;;;;;35.77;13.80;94002.25;5007553;28;20407;-77
2022/04/09 05:31:57;;;;;;;14.80;6.83;;;;;;;36.79;13.30;94012.41;4989922;28;20860;-76
2022/04/09 05:34:23;;;;;;;13.95;5.80;;;;;;;37.87;12.40;93997.19;5006979;28;20439;-76
2022/04/09 05:36:48;;;;;;;10.45;4.03;;;;;;;38.49;11.80;93993.25;5006144;28;20942;-76
2022/04/09 05:39:15;;;;;;;12.63;3.47;;;;;;;38.67;11.68;93993.53;5007731;28;20403;-76
2022/04/09 05:41:41;;;;;;;9.45;3.05;;;;;;;38.96;11.44;94003.56;5010696;28;20404;-76
2022/04/09 05:44:06;;;;;;;10.23;3.23;;;;;;;38.99;11.60;94000.75;5010404;28;20411;-76
2022/04/09 05:46:32;;;;;;;13.03;3.60;;;;;;;39.31;11.43;93991.63;4992913;28;20419;-76
2022/04/09 05:48:57;;;;;;;6.60;3.00;;;;;;;38.84;11.46;93993.44;4992925;28;20396;-77
2022/04/09 05:51:24;;;;;;;9.27;2.93;;;;;;;37.70;12.13;93999.16;4992469;28;20412;-76
2022/04/09 05:53:49;;;;;;;11.52;3.33;;;;;;;36.31;12.98;93997.47;5025713;28;20392;-77
2022/04/09 05:56:15;;;;;;;8.57;2.97;;;;;;;35.05;13.80;94001.81;5009181;28;20491;-76
2022/04/09 05:58:42;;;;;;;10.80;2.90;;;;;;;33.79;14.92;94001.66;4992939;28;20942;-76
2022/04/09 06:01:07;;;;;;;6.87;2.90;;;;;;;31.91;16.64;94004.16;5010099;28;20975;-77
2022/04/09 06:03:33;;;;;;;10.18;3.03;;;;;;;30.82;17.79;94010.19;4992928;28;20407;-76
2022/04/09 06:05:58;;;;;;;13.47;3.63;;;;;;;30.18;18.57;94005.31;5010220;28;20408;-76
2022/04/09 06:08:24;;;;;;;8.70;3.20;;;;;;;29.36;19.34;94009.28;5010001;28;20038;-76
2022/04/09 06:10:49;;;;;;;14.82;3.45;;;;;;;28.27;20.18;94010.41;5026382;28;20444;-76
2022/04/09 06:13:15;;;;;;;12.55;2.95;;;;;;;27.62;21.38;94003.34;4993881;28;20033;-76
2022/04/09 06:15:41;;;;;;;9.55;3.17;;;;;;;27.23;21.79;94002.00;4993192;28;20042;-76
2022/04/09 06:18:07;;;;;;;9.40;3.28;;;;;;;26.86;22.20;94003.25;5011307;28;20037;-76
2022/04/09 06:20:33;;;;;;;9.55;3.42;;;;;;;26.47;22.85;94001.72;5011150;28;20076;-76
2022/04/09 06:22:59;;;;;;;10.52;3.70;;;;;;;26.07;23.25;94002.81;5010149;28;20390;-75
2022/04/09 06:25:25;;;;;;;9.00;3.45;;;;;;;25.82;23.49;94001.50;5010004;28;20034;-75
2022/04/09 06:27:51;;;;;;;15.40;3.28;;;;;;;25.33;23.99;93991.25;5011307;28;20122;-75
2022/04/09 06:30:16;;;;;;;13.18;3.00;;;;;;;24.98;24.76;93996.44;5011398;28;20496;-75
2022/04/09 06:32:41;;;;;;;11.38;3.78;;;;;;;24.75;25.11;93996.25;5010916;28;20515;-76
2022/04/09 06:35:07;;;;;;;6.85;3.60;;;;;;;24.54;25.06;93999.88;5009600;28;20049;-76
2022/04/09 06:37:36;;;;;;;11.73;3.38;;;;;;;24.30;25.43;94010.59;5011011;28;20040;-77
2022/04/09 06:40:02;;;;;;;11.27;3.53;;;;;;;24.06;25.96;94010.63;5009177;28;20116;-76
2022/04/09 06:42:27;;;;;;;14.35;3.85;;;;;;;24.00;25.99;94017.31;5010160;28;20432;-76
2022/04/09 06:44:53;;;;;;;8.93;3.17;;;;;;;23.94;25.88;94014.88;5010531;28;20053;-76
2022/04/09 06:47:18;;;;;;;13.27;3.28;;;;;;;23.85;25.81;94016.88;5008288;28;20072;-76
2022/04/09 06:49:44;;;;;;;10.13;3.35;;;;;;;23.60;25.96;94016.16;5025109;28;20022;-77
2022/04/09 06:52:09;;;;;;;9.15;3.25;;;;;;;23.48;26.79;94023.28;5009280;28;20034;-75
2022/04/09 06:54:34;;;;;;;9.63;3.15;;;;;;;23.03;27.24;94011.66;5010116;28;20060;-75
2022/04/09 06:57:00;;;;;;;6.45;3.17;;;;;;;22.97;26.97;94020.16;4993194;28;20046;-76
2022/04/09 06:59:26;;;;;;;10.73;3.28;;;;;;;22.83;27.54;94009.84;5007775;28;20034;-77
2022/04/09 07:01:51;;;;;;;15.45;3.08;;;;;;;22.71;27.72;94013.19;4994367;28;20057;-78
2022/04/09 07:04:17;;;;;;;8.85;3.92;;;;;;;22.95;27.75;94014.41;5009998;28;20049;-76
2022/04/09 07:06:44;;;;;;;9.80;3.65;;;;;;;23.13;27.65;94018.41;5011344;28;20048;-76
2022/04/09 07:09:10;;;;;;;14.73;3.40;;;;;;;23.21;26.99;94014.88;5009492;28;20036;-76
2022/04/09 07:11:35;;;;;;;15.43;3.63;;;;;;;23.23;27.07;94022.50;5009333;28;20034;-77
2022/04/09 07:14:00;;;;;;;10.13;3.65;;;;;;;23.27;27.21;94013.56;5010503;28;20041;-76
2022/04/09 07:16:26;;;;;;;14.68;3.72;;;;;;;23.41;27.42;94017.75;5009149;28;20026;-77
2022/04/09 07:18:51;;;;;;;15.38;4.03;;;;;;;23.60;26.92;94008.19;5008923;28;20041;-76
2022/04/09 07:21:17;;;;;;;13.82;3.95;;;;;;;23.77;26.75;94009.81;5009247;28;20025;-74
2022/04/09 07:23:42;;;;;;;9.30;3.17;;;;;;;23.95;26.56;94005.81;5010151;28;20030;-75
2022/04/09 07:26:08;;;;;;;12.77;3.75;;;;;;;24.09;26.13;94002.03;5008863;28;20022;-75
2022/04/09 07:28:33;;;;;;;9.80;3.70;;;;;;;24.11;26.20;93997.13;5009863;28;20114;-74
2022/04/09 07:30:59;;;;;;;11.25;3.97;;;;;;;24.06;26.13;93989.38;5010007;28;20034;-74
2022/04/09 07:33:24;;;;;;;5.32;3.05;;;;;;;24.08;26.84;93992.47;4992553;28;20049;-75
2022/04/09 07:35:53;;;;;;;14.02;3.35;;;;;;;23.97;26.14;93983.44;5009157;28;20041;-74
2022/04/09 07:38:18;;;;;;;12.05;3.47;;;;;;;23.82;26.44;93983.03;5007717;28;20034;-75
2022/04/09 07:40:44;;;;;;;9.23;3.25;;;;;;;23.87;26.68;93985.44;5009243;28;20046;-78
2022/04/09 07:43:09;;;;;;;15.68;3.50;;;;;;;23.75;26.63;93982.81;5010410;28;20040;-77
2022/04/09 07:45:35;;;;;;;10.35;3.17;;;;;;;23.70;27.38;93972.44;4992449;28;20029;-77
2022/04/09 07:48:01;;;;;;;21.95;3.67;;;;;;;23.72;27.00;93975.53;5008576;28;20068;-79
2022/04/09 07:50:28;;;;;;;19.45;3.38;;;;;;;23.70;27.06;93972.44;5024718;28;20113;-77
2022/04/09 07:52:53;;;;;;;11.75;3.78;;;;;;;23.45;27.03;93966.38;4992236;28;20402;-77
2022/04/09 07:55:19;;;;;;;7.18;2.50;;;;;;;23.31;26.55;93972.00;4993427;28;20037;-77
2022/04/09 07:57:54;;;;;;;5.13;1.70;;;;;;;23.16;27.25;93969.25;5010162;28;20033;-79
2022/04/09 08:00:21;;;;;;;20.33;2.00;;;;;;;23.09;26.89;93969.75;5027318;28;20038;-79
2022/04/09 08:02:47;;;;;;;16.60;2.10;;;;;;;22.99;27.52;93967.56;4994282;28;20038;-78
2022/04/09 08:05:12;;;;;;;4.05;1.55;;;;;;;22.94;27.26;93968.56;4995737;28;20103;-78
2022/04/09 08:07:38;;;;;;;5.72;1.70;;;;;;;22.95;27.71;93974.63;5011336;28;20030;-79
2022/04/09 08:10:04;;;;;;;8.20;2.00;;;;;;;22.89;28.00;93966.09;5018108;28;20037;-78
2022/04/09 08:12:30;;;;;;;6.60;2.08;;;;;;;22.86;27.75;93968.66;5011786;28;20489;-79
2022/04/09 08:14:56;;;;;;;8.10;2.30;;;;;;;22.90;27.50;93961.56;5016335;28;20053;-79
2022/04/09 08:17:22;;;;;;;4.40;2.83;;;;;;;23.05;27.71;93966.25;5020511;28;20061;-79
2022/04/09 08:19:48;;;;;;;8.88;2.45;;;;;;;23.07;27.90;93966.69;5000272;28;20545;-77
2022/04/09 08:22:14;;;;;;;17.50;2.58;;;;;;;23.20;27.71;93968.22;5010722;28;20033;-78
2022/04/09 08:24:41;;;;;;;6.57;2.22;;;;;;;23.27;27.42;93955.22;4995284;28;20161;-79
2022/04/09 08:27:09;;;;;;;7.15;2.05;;;;;;;23.55;27.68;93954.50;5010500;28;20040;-78
2022/04/09 08:29:35;;;;;;;19.98;3.35;;;;;;;23.75;27.57;93948.31;5010753;28;20029;-80
2022/04/09 08:32:01;;;;;;;4.30;2.00;;;;;;;23.71;27.67;93955.41;5028815;28;20037;-78
2022/04/09 08:34:29;;;;;;;11.02;2.08;;;;;;;23.39;27.32;93956.28;5010688;28;20026;-77
2022/04/09 08:36:55;;;;;;;8.75;2.20;;;;;;;23.12;27.70;93939.97;5010373;28;20048;-79
2022/04/09 08:39:20;;;;;;;8.55;2.08;;;;;;;22.48;27.98;93951.09;5025787;28;20041;-77
2022/04/09 08:41:46;;;;;;;9.27;2.50;;;;;;;22.48;28.69;93945.81;4992004;28;20037;-77
2022/04/09 08:44:12;;;;;;;13.80;2.53;;;;;;;22.39;28.56;93945.09;4998862;28;20046;-83
2022/04/09 08:46:39;;;;;;;8.75;2.15;;;;;;;22.62;28.58;93945.50;4985689;28;20030;-85
2022/04/09 08:49:05;;;;;;;10.55;2.80;;;;;;;22.80;28.77;93946.09;4995664;28;20037;-81
2022/04/09 08:51:30;;;;;;;13.90;1.85;;;;;;;22.97;27.82;93946.69;5011245;28;20693;-76
2022/04/09 08:53:57;;;;;;;13.50;2.80;;;;;;;23.15;27.93;93947.25;5013225;28;20037;-81
2022/04/09 08:56:23;;;;;;;4.88;2.08;;;;;;;23.11;27.50;93945.59;5002554;28;20164;-86
2022/04/09 08:58:49;;;;;;;9.52;2.28;;;;;;;23.13;27.86;93952.09;5000242;28;20057;-78
2022/04/09 09:01:14;;;;;;;8.93;2.00;;;;;;;23.04;28.16;93948.78;5011584;28;20030;-83
2022/04/09 09:03:40;;;;;;;7.40;2.65;;;;;;;23.17;27.85;93942.38;5018476;28;20053;-82
2022/04/09 09:06:35;;;;;;;6.15;2.35;;;;;;;23.25;28.00;93940.72;4994739;28;20413;-78
2022/04/09 09:09:03;;;;;;;14.32;2.50;;;;;;;23.49;27.41;93919.47;5014179;28;20112;-83
2022/04/09 09:11:29;;;;;;;6.45;2.05;;;;;;;23.45;27.05;93933.75;4995590;28;20516;-84
2022/04/09 09:13:58;;;;;;;3.78;1.63;;;;;;;23.52;26.84;93926.75;4999019;28;20069;-84
2022/04/09 09:16:30;;;;;;;5.00;1.90;;;;;;;23.24;27.10;93939.94;5001496;28;20520;-83
2022/04/09 09:18:57;;;;;;;9.80;2.08;;;;;;;23.14;27.42;93935.09;5000321;28;20563;-81
2022/04/09 09:21:23;;;;;;;11.13;2.28;;;;;;;23.11;27.21;93933.09;4998775;28;20037;-82
2022/04/09 09:24:10;;;;;;;8.55;2.13;;;;;;;23.05;27.95;93931.75;5002838;28;20192;-83
2022/04/09 09:26:55;;;;;;;4.20;1.98;;;;;;;22.93;27.53;93935.16;5003739;28;20114;-82
2022/04/09 09:29:27;;;;;;;9.52;1.90;;;;;;;22.71;28.80;93923.09;4976941;28;20043;-83
2022/04/09 09:31:53;;;;;;;8.18;2.50;;;;;;;22.62;27.95;93930.38;4978015;28;20058;-84
2022/04/09 09:34:19;;;;;;;7.20;2.25;;;;;;;22.52;28.07;93930.78;4989110;23;20047;-82
2022/04/09 09:36:44;;;;;;;5.85;2.28;;;;;;;22.52;28.36;93930.00;4987981;28;20035;-83
2022/04/09 09:39:14;;;;;;;9.32;2.67;;;;;;;22.55;28.46;93927.47;4981513;28;20089;-83
2022/04/09 09:41:52;;;;;;;9.82;2.63;;;;;;;22.47;28.45;93928.34;4956644;28;20677;-82
2022/04/09 09:44:19;;;;;;;15.13;2.35;;;;;;;22.51;28.59;93923.16;4984760;28;20430;-83
2022/04/09 09:46:46;;;;;;;8.57;2.40;;;;;;;22.73;29.09;93920.09;4967877;28;20039;-83
2022/04/09 09:49:12;;;;;;;13.25;2.15;;;;;;;22.94;28.63;93915.53;4966844;28;20027;-80
2022/04/09 09:51:38;;;;;;;11.18;2.13;;;;;;;23.16;28.38;93911.66;4998700;28;20089;-83
2022/04/09 09:54:08;;;;;;;5.47;1.77;;;;;;;23.25;27.82;93909.66;4998130;28;20035;-83
2022/04/09 09:56:35;;;;;;;6.55;2.20;;;;;;;23.42;27.45;93902.56;4979783;28;20034;-82
2022/04/09 09:59:09;;;;;;;11.43;3.03;;;;;;;23.61;27.03;93905.44;5007156;28;20034;-82
2022/04/09 10:01:38;;;;;;;5.95;1.70;;;;;;;23.58;26.85;93901.56;4981384;28;20070;-83
2022/04/09 10:04:04;;;;;;;2.95;1.60;;;;;;;23.61;26.06;93898.25;5009986;28;20035;-82
2022/04/09 10:06:31;;;;;;;3.95;1.73;;;;;;;23.62;25.88;93891.06;4985357;28;20050;-83
2022/04/09 10:08:58;;;;;;;3.60;1.50;;;;;;;23.57;26.12;93878.00;4986139;28;20074;-83
2022/04/09 10:11:23;;;;;;;13.57;2.42;;;;;;;23.45;27.03;93892.06;4987522;28;20041;-83
2022/04/09 10:13:49;;;;;;;6.53;2.75;;;;;;;23.39;26.24;93893.38;5012135;23;20135;-83
2022/04/09 10:16:21;;;;;;;7.93;2.97;;;;;;;23.36;26.57;93873.63;5000548;28;20081;-82
2022/04/09 10:18:48;;;;;;;5.43;1.60;;;;;;;23.39;25.64;93882.00;4995577;28;20038;-82
2022/04/09 10:21:13;;;;;;;4.57;1.90;;;;;;;23.46;24.97;93887.53;4979132;28;20034;-83
2022/04/09 10:23:39;;;;;;;9.70;2.08;;;;;;;23.52;26.15;93880.88;5001652;28;20426;-84
2022/04/09 10:26:04;;;;;;;7.32;1.80;;;;;;;23.62;24.99;93872.50;4977541;28;20042;-83
2022/04/09 10:28:38;;;;;;;8.48;1.90;;;;;;;23.44;24.81;93877.25;4976853;28;20085;-83
2022/04/09 10:31:22;;;;;;;3.13;1.80;;;;;;;23.48;25.04;93872.03;4991112;28;20074;-83
2022/04/09 10:33:58;;;;;;;22.45;3.03;;;;;;;23.40;24.85;93857.00;4993583;28;20046;-83
2022/04/09 10:36:45;;;;;;;14.75;2.22;;;;;;;23.34;24.52;93865.22;5015681;28;20058;-83
2022/04/09 10:39:23;;;;;;;6.32;1.95;;;;;;;23.26;24.60;93858.13;4991763;28;20038;-83
2022/04/09 10:41:57;;;;;;;18.02;2.40;;;;;;;23.23;24.82;93864.13;4989267;28;20125;-86
2022/04/09 10:44:43;;;;;;;5.80;2.30;;;;;;;23.23;24.84;93850.09;4989490;28;20086;-83
2022/04/09 10:47:13;;;;;;;7.40;1.95;;;;;;;23.28;24.59;93860.50;4987828;28;20482;-84
2022/04/09 10:49:39;;;;;;;16.00;2.15;;;;;;;23.27;24.94;93838.50;4973757;28;20026;-85
2022/04/09 10:52:14;;;;;;;6.85;2.17;;;;;;;23.17;25.22;93856.75;4991513;28;20060;-83
2022/04/09 10:54:43;;;;;;;6.90;1.80;;;;;;;23.27;25.90;93849.09;4972726;28;20046;-85
2022/04/09 10:57:29;;;;;;;7.25;2.63;;;;;;;23.29;24.78;93841.59;4994354;28;20106;-85
2022/04/09 10:59:57;;;;;;;7.45;2.45;;;;;;;23.41;24.43;93816.09;4994998;28;20046;-83
2022/04/09 11:02:23;;;;;;;7.63;1.83;;;;;;;23.51;24.49;93831.56;5002029;28;20039;-83
2022/04/09 11:04:48;;;;;;;8.18;1.98;;;;;;;23.33;25.67;93826.53;5000676;28;20037;-82
2022/04/09 11:07:14;;;;;;;7.47;2.33;;;;;;;23.29;24.58;93819.59;4981859;28;20034;-83
2022/04/09 11:09:56;;;;;;;9.90;1.50;;;;;;;23.47;25.01;93825.41;4999035;28;20065;-83
2022/04/09 11:12:41;;;;;;;4.60;2.03;;;;;;;23.56;24.45;93823.34;4989721;28;20081;-83
2022/04/09 11:15:10;;;;;;;4.60;1.73;;;;;;;23.46;25.59;93807.94;4989626;28;20073;-82
2022/04/09 11:17:37;;;;;;;11.88;2.30;;;;;;;23.48;24.11;93803.06;4972349;28;20038;-86
2022/04/09 11:20:04;;;;;;;11.45;2.60;;;;;;;23.46;23.42;93818.53;4987363;28;20457;-83
2022/04/09 11:22:31;;;;;;;4.65;1.75;;;;;;;23.52;23.97;93817.19;4988741;28;20048;-83
2022/04/09 11:24:56;;;;;;;26.15;2.17;;;;;;;23.51;24.03;93816.41;4979022;28;20113;-82
2022/04/09 11:27:26;;;;;;;4.13;1.52;;;;;;;23.59;23.91;93817.41;4974539;28;20043;-83
2022/04/09 11:29:52;;;;;;;18.52;1.88;;;;;;;23.76;23.99;93819.03;4989514;28;20038;-83